« Back
NWS Peachtree City, Ga » Text Product » MCN Terminal Aerodrome Forecast


Printer-friendly Version
Current Version              Previous Versions:   1  2  3  4  5  6  7  8  9  

Terminal Aerodrome Forecast

807
FTUS42 KFFC 271122
TAFMCN
TAF
KMCN 271122Z 2712/2812 29010G18KT P6SM SCT010 BKN020
      TEMPO 2712/2714 BKN008
     FM271400 32011KT P6SM OVC015
     FM271800 33013G23KT P6SM BKN030
     FM272100 32012G22KT P6SM SCT030
     FM280400 32005KT P6SM SKC=

USA.gov is the U.S. government's official web portal to all federal, state and local government web resources and services.